地図

経路データ

SID SEASON NUMBER BASIN SUBBASIN NAME ISO_TIME NATURE LAT LON WMO_WIND WMO_PRES WMO_AGENCY TRACK_TYPE DIST2LAND LANDFALL IFLAG USA_AGENCY USA_ATCF_ID USA_LAT USA_LON USA_RECORD USA_STATUS USA_WIND USA_PRES USA_SSHS USA_R34_NE USA_R34_SE USA_R34_SW USA_R34_NW USA_R50_NE USA_R50_SE USA_R50_SW USA_R50_NW USA_R64_NE USA_R64_SE USA_R64_SW USA_R64_NW USA_POCI USA_ROCI USA_RMW USA_EYE TOKYO_LAT TOKYO_LON TOKYO_GRADE TOKYO_WIND TOKYO_PRES TOKYO_R50_DIR TOKYO_R50_LONG TOKYO_R50_SHORT TOKYO_R30_DIR TOKYO_R30_LONG TOKYO_R30_SHORT TOKYO_LAND CMA_LAT CMA_LON CMA_CAT CMA_WIND CMA_PRES HKO_LAT HKO_LON HKO_CAT HKO_WIND HKO_PRES NEWDELHI_LAT NEWDELHI_LON NEWDELHI_GRADE NEWDELHI_WIND NEWDELHI_PRES NEWDELHI_CI NEWDELHI_DP NEWDELHI_POCI REUNION_LAT REUNION_LON REUNION_TYPE REUNION_WIND REUNION_PRES REUNION_TNUM REUNION_CI REUNION_RMW REUNION_R34_NE REUNION_R34_SE REUNION_R34_SW REUNION_R34_NW REUNION_R50_NE REUNION_R50_SE REUNION_R50_SW REUNION_R50_NW REUNION_R64_NE REUNION_R64_SE REUNION_R64_SW REUNION_R64_NW BOM_LAT BOM_LON BOM_TYPE BOM_WIND BOM_PRES BOM_TNUM BOM_CI BOM_RMW BOM_R34_NE BOM_R34_SE BOM_R34_SW BOM_R34_NW BOM_R50_NE BOM_R50_SE BOM_R50_SW BOM_R50_NW BOM_R64_NE BOM_R64_SE BOM_R64_SW BOM_R64_NW BOM_ROCI BOM_POCI BOM_EYE BOM_POS_METHOD BOM_PRES_METHOD NADI_LAT NADI_LON NADI_CAT NADI_WIND NADI_PRES WELLINGTON_LAT WELLINGTON_LON WELLINGTON_WIND WELLINGTON_PRES DS824_LAT DS824_LON DS824_STAGE DS824_WIND DS824_PRES TD9636_LAT TD9636_LON TD9636_STAGE TD9636_WIND TD9636_PRES TD9635_LAT TD9635_LON TD9635_WIND TD9635_PRES TD9635_ROCI NEUMANN_LAT NEUMANN_LON NEUMANN_CLASS NEUMANN_WIND NEUMANN_PRES MLC_LAT MLC_LON MLC_CLASS MLC_WIND MLC_PRES USA_GUST BOM_GUST BOM_GUST_PER REUNION_GUST REUNION_GUST_PER USA_SEAHGT USA_SEARAD_NE USA_SEARAD_SE USA_SEARAD_SW USA_SEARAD_NW STORM_SPEED STORM_DIR
1888194N16126 1888 27 WP MM NOT_NAMED 1888-07-12 04:00:00 NR 15.6000 126.200 main 271 256 __________O___ -1 15.6000 126.200 7 9 292
1888194N16126 1888 27 WP MM NOT_NAMED 1888-07-12 06:00:00 NR 15.7086 125.920 main 256 245 __________P___ -1 15.7086 125.920 7 9 292
1888194N16126 1888 27 WP MM NOT_NAMED 1888-07-12 09:00:00 NR 15.8743 125.504 main 248 238 __________P___ -1 15.8743 125.504 7 9 293
1888194N16126 1888 27 WP MM NOT_NAMED 1888-07-12 12:00:00 NR 16.0477 125.102 main 239 243 __________P___ -1 16.0477 125.102 7 8 296
1888194N16126 1888 27 WP MM NOT_NAMED 1888-07-12 15:00:00 NR 16.2341 124.721 main 247 233 __________P___ -1 16.2341 124.721 7 8 298
1888194N16126 1888 27 WP MM NOT_NAMED 1888-07-12 16:00:00 NR 16.3000 124.600 main 233 210 __________O___ -1 16.3000 124.600 7 8 301
1888194N16126 1888 27 WP MM NOT_NAMED 1888-07-12 18:00:00 NR 16.4387 124.368 main 210 161 __________P___ -1 16.4387 124.368 7 8 304
1888194N16126 1888 27 WP MM NOT_NAMED 1888-07-12 21:00:00 NR 16.6655 124.033 main 161 127 __________P___ -1 16.6655 124.033 7 8 307
1888194N16126 1888 27 WP MM NOT_NAMED 1888-07-13 00:00:00 NR 16.9180 123.694 main 127 87 __________P___ -1 16.9180 123.694 7 9 308
1888194N16126 1888 27 WP MM NOT_NAMED 1888-07-13 03:00:00 NR 17.1993 123.331 main 87 81 __________P___ -1 17.1993 123.331 7 9 309
1888194N16126 1888 27 WP MM NOT_NAMED 1888-07-13 04:00:00 NR 17.3000 123.200 main 81 57 __________O___ -1 17.3000 123.200 7 10 308
1888194N16126 1888 27 WP MM NOT_NAMED 1888-07-13 06:00:00 NR 17.4998 122.927 main 57 42 __________P___ -1 17.4998 122.927 7 10 308
1888194N16126 1888 27 WP MM NOT_NAMED 1888-07-13 09:00:00 NR 17.8244 122.487 main 42 0 __________P___ -1 17.8244 122.487 7 11 308
1888194N16126 1888 27 WP MM NOT_NAMED 1888-07-13 12:00:00 NR 18.1793 122.007 main 0 0 __________P___ -1 18.1793 122.007 7 12 308
1888194N16126 1888 27 WP MM NOT_NAMED 1888-07-13 15:00:00 NR 18.5647 121.484 main 15 11 __________P___ -1 18.5647 121.484 7 13 308
1888194N16126 1888 27 WP MM NOT_NAMED 1888-07-13 16:00:00 NR 18.7000 121.300 main 22 22 __________O___ -1 18.7000 121.300 3 14 308
1888194N16126 1888 27 WP MM NOT_NAMED 1888-07-13 18:00:00 NR 18.9986 120.900 main 44 44 __________P___ -1 18.9986 120.900 3 15 308
1888194N16126 1888 27 WP MM NOT_NAMED 1888-07-13 21:00:00 NR 19.4720 120.262 main 113 118 __________P___ -1 19.4720 120.262 3 15 308
1888194N16126 1888 27 WP MM NOT_NAMED 1888-07-14 00:00:00 NR 19.9423 119.612 main 192 200 __________P___ -1 19.9423 119.612 3 15 307
1888194N16126 1888 27 WP MM NOT_NAMED 1888-07-14 03:00:00 NR 20.3721 118.993 main 243 243 __________P___ -1 20.3721 118.993 3 14 306
1888194N16126 1888 27 WP MM NOT_NAMED 1888-07-14 04:00:00 NR 20.5000 118.800 main 251 251 __________O___ -1 20.5000 118.800 4 12 304
1888194N16126 1888 27 WP MM NOT_NAMED 1888-07-14 06:00:00 NR 20.7087 118.466 main 264 262 __________P___ -1 20.7087 118.466 4 11 303
1888194N16126 1888 27 WP MM NOT_NAMED 1888-07-14 09:00:00 NR 20.9720 118.011 main 262 221 __________P___ -1 20.9720 118.011 4 10 301
1888194N16126 1888 27 WP MM NOT_NAMED 1888-07-14 12:00:00 NR 21.2006 117.583 main 221 182 __________P___ -1 21.2006 117.583 4 9 299
1888194N16126 1888 27 WP MM NOT_NAMED 1888-07-14 15:00:00 NR 21.4227 117.151 main 182 164 __________P___ -1 21.4227 117.151 4 9 299
1888194N16126 1888 27 WP MM NOT_NAMED 1888-07-14 16:00:00 NR 21.5000 117.000 main 164 135 __________O___ -1 21.5000 117.000 4 10 302
1888194N16126 1888 27 WP MM NOT_NAMED 1888-07-14 18:00:00 NR 21.6872 116.696 main 135 88 __________P___ -1 21.6872 116.696 4 10 303
1888194N16126 1888 27 WP MM NOT_NAMED 1888-07-14 21:00:00 NR 21.9749 116.221 main 88 45 __________P___ -1 21.9749 116.221 4 11 302
1888194N16126 1888 27 WP MM NOT_NAMED 1888-07-15 00:00:00 NR 22.2574 115.703 main 45 20 __________P___ -1 22.2574 115.703 4 12 298
1888194N16126 1888 27 WP MM NOT_NAMED 1888-07-15 03:00:00 NR 22.5198 115.115 main 20 0 __________P___ -1 22.5198 115.115 4 12 295
1888194N16126 1888 27 WP MM NOT_NAMED 1888-07-15 04:00:00 NR 22.6000 114.900 main 0 0 __________O___ -1 22.6000 114.900 4 13 291
1888194N16126 1888 27 WP MM NOT_NAMED 1888-07-15 06:00:00 NR 22.7581 114.432 main 0 0 __________P___ -1 22.7581 114.432 4 14 288
1888194N16126 1888 27 WP MM NOT_NAMED 1888-07-15 09:00:00 NR 22.9702 113.662 main 0 0 __________P___ -1 22.9702 113.662 4 15 285
1888194N16126 1888 27 WP MM NOT_NAMED 1888-07-15 12:00:00 NR 23.1438 112.835 main 0 0 __________P___ -1 23.1438 112.835 4 16 281
1888194N16126 1888 27 WP MM NOT_NAMED 1888-07-15 15:00:00 NR 23.2700 111.984 main 0 0 __________P___ -1 23.2700 111.984 4 16 279
1888194N16126 1888 27 WP MM NOT_NAMED 1888-07-15 16:00:00 NR 23.3000 111.700 main 0 0 __________O___ -1 23.3000 111.700 4 16 275
1888194N16126 1888 27 WP MM NOT_NAMED 1888-07-15 18:00:00 NR 23.3414 111.138 main 0 0 __________P___ -1 23.3414 111.138 4 15 273
1888194N16126 1888 27 WP MM NOT_NAMED 1888-07-15 21:00:00 NR 23.3636 110.306 main 0 0 __________P___ -1 23.3636 110.306 4 15 270
1888194N16126 1888 27 WP MM NOT_NAMED 1888-07-16 00:00:00 NR 23.3501 109.485 main 0 0 __________P___ -1 23.3501 109.485 4 15 268
1888194N16126 1888 27 WP MM NOT_NAMED 1888-07-16 03:00:00 NR 23.3145 108.671 main 0 0 __________P___ -1 23.3145 108.671 4 15 267
1888194N16126 1888 27 WP MM NOT_NAMED 1888-07-16 04:00:00 NR 23.3000 108.400 main 0 __________O___ -1 23.3000 108.400 7 15 267

デジタル台風データ・検索

IBTrACS Databaseについて

本データベースは、米国NOAAが公開する1842年以降の世界の熱帯低気圧のベストトラックデータアーカイブInternational Best Track Archive for Climate Stewardship (IBTrACS)を、ウェブで閲覧しやすい形式に変換したものです。

最終更新日:2021-11-26